sensor_id;sensor_type;location;lat;lon;timestamp;temperature;humidity
48936;DHT22;34745;52.276;10.528;2024-02-26T00:01:06;3.90;8.10
48936;DHT22;34745;52.276;10.528;2024-02-26T00:03:32;3.90;1.40
48936;DHT22;34745;52.276;10.528;2024-02-26T00:06:02;3.90;5.00
48936;DHT22;34745;52.276;10.528;2024-02-26T00:08:29;3.90;6.70
48936;DHT22;34745;52.276;10.528;2024-02-26T00:10:56;3.80;4.10
48936;DHT22;34745;52.276;10.528;2024-02-26T00:13:23;3.80;4.00
48936;DHT22;34745;52.276;10.528;2024-02-26T00:15:52;3.70;6.70
48936;DHT22;34745;52.276;10.528;2024-02-26T00:18:19;3.70;10.70
48936;DHT22;34745;52.276;10.528;2024-02-26T00:20:46;3.70;12.90
48936;DHT22;34745;52.276;10.528;2024-02-26T00:23:15;3.70;13.20
48936;DHT22;34745;52.276;10.528;2024-02-26T00:25:42;3.70;13.60
48936;DHT22;34745;52.276;10.528;2024-02-26T00:28:10;3.80;17.80
48936;DHT22;34745;52.276;10.528;2024-02-26T00:30:37;3.80;12.40
48936;DHT22;34745;52.276;10.528;2024-02-26T00:33:05;3.80;7.70
48936;DHT22;34745;52.276;10.528;2024-02-26T00:35:32;3.90;10.80
48936;DHT22;34745;52.276;10.528;2024-02-26T00:38:00;3.90;13.60
48936;DHT22;34745;52.276;10.528;2024-02-26T00:40:28;3.80;9.80
48936;DHT22;34745;52.276;10.528;2024-02-26T00:42:56;3.80;12.20
48936;DHT22;34745;52.276;10.528;2024-02-26T00:45:22;3.80;11.30
48936;DHT22;34745;52.276;10.528;2024-02-26T00:47:49;3.70;12.40
48936;DHT22;34745;52.276;10.528;2024-02-26T00:50:18;3.70;13.50
48936;DHT22;34745;52.276;10.528;2024-02-26T00:52:45;3.70;17.50
48936;DHT22;34745;52.276;10.528;2024-02-26T00:55:12;3.70;17.90
48936;DHT22;34745;52.276;10.528;2024-02-26T00:57:39;3.70;20.00
48936;DHT22;34745;52.276;10.528;2024-02-26T01:00:08;3.90;23.30
48936;DHT22;34745;52.276;10.528;2024-02-26T01:02:35;3.70;20.70
48936;DHT22;34745;52.276;10.528;2024-02-26T01:05:03;3.70;22.70
48936;DHT22;34745;52.276;10.528;2024-02-26T01:07:31;3.70;20.00
48936;DHT22;34745;52.276;10.528;2024-02-26T01:10:04;3.60;12.40
48936;DHT22;34745;52.276;10.528;2024-02-26T01:12:32;3.60;15.60
48936;DHT22;34745;52.276;10.528;2024-02-26T01:14:59;3.60;16.30
48936;DHT22;34745;52.276;10.528;2024-02-26T01:17:27;3.50;16.10
48936;DHT22;34745;52.276;10.528;2024-02-26T01:19:54;3.50;18.00
48936;DHT22;34745;52.276;10.528;2024-02-26T01:22:21;3.50;24.50
48936;DHT22;34745;52.276;10.528;2024-02-26T01:24:50;3.80;27.90
48936;DHT22;34745;52.276;10.528;2024-02-26T01:27:17;3.60;25.80
48936;DHT22;34745;52.276;10.528;2024-02-26T01:29:45;3.60;29.20
48936;DHT22;34745;52.276;10.528;2024-02-26T01:32:12;3.60;24.30
48936;DHT22;34745;52.276;10.528;2024-02-26T01:34:39;3.80;33.10
48936;DHT22;34745;52.276;10.528;2024-02-26T01:37:07;3.60;33.80
48936;DHT22;34745;52.276;10.528;2024-02-26T01:39:34;3.60;32.10
48936;DHT22;34745;52.276;10.528;2024-02-26T01:42:02;3.50;28.20
48936;DHT22;34745;52.276;10.528;2024-02-26T01:44:29;3.60;29.20
48936;DHT22;34745;52.276;10.528;2024-02-26T01:46:56;3.50;30.90
48936;DHT22;34745;52.276;10.528;2024-02-26T01:49:24;3.70;33.50
48936;DHT22;34745;52.276;10.528;2024-02-26T01:51:51;3.50;34.30
48936;DHT22;34745;52.276;10.528;2024-02-26T01:54:18;3.50;35.00
48936;DHT22;34745;52.276;10.528;2024-02-26T01:56:45;3.50;34.70
48936;DHT22;34745;52.276;10.528;2024-02-26T01:59:14;3.50;40.60
48936;DHT22;34745;52.276;10.528;2024-02-26T02:01:44;3.50;33.00
48936;DHT22;34745;52.276;10.528;2024-02-26T02:04:12;3.40;31.80
48936;DHT22;34745;52.276;10.528;2024-02-26T02:06:40;3.40;28.70
48936;DHT22;34745;52.276;10.528;2024-02-26T02:09:08;3.40;25.10
48936;DHT22;34745;52.276;10.528;2024-02-26T02:11:35;3.40;36.40
48936;DHT22;34745;52.276;10.528;2024-02-26T02:14:02;3.40;30.60
48936;DHT22;34745;52.276;10.528;2024-02-26T02:16:31;3.40;30.00
48936;DHT22;34745;52.276;10.528;2024-02-26T02:18:58;3.50;26.60
48936;DHT22;34745;52.276;10.528;2024-02-26T02:21:27;3.40;28.70
48936;DHT22;34745;52.276;10.528;2024-02-26T02:23:54;3.40;27.00
48936;DHT22;34745;52.276;10.528;2024-02-26T02:26:21;3.40;26.10
48936;DHT22;34745;52.276;10.528;2024-02-26T02:28:48;3.30;23.00
48936;DHT22;34745;52.276;10.528;2024-02-26T02:31:15;3.20;25.80
48936;DHT22;34745;52.276;10.528;2024-02-26T02:33:43;3.20;26.20
48936;DHT22;34745;52.276;10.528;2024-02-26T02:36:11;3.20;30.90
48936;DHT22;34745;52.276;10.528;2024-02-26T02:38:48;3.10;31.80
48936;DHT22;34745;52.276;10.528;2024-02-26T02:41:17;3.10;28.30
48936;DHT22;34745;52.276;10.528;2024-02-26T02:43:44;3.10;28.30
48936;DHT22;34745;52.276;10.528;2024-02-26T02:46:11;3.10;31.60
48936;DHT22;34745;52.276;10.528;2024-02-26T02:48:38;3.20;34.20
48936;DHT22;34745;52.276;10.528;2024-02-26T02:51:05;3.10;41.10
48936;DHT22;34745;52.276;10.528;2024-02-26T02:53:32;3.30;40.10
48936;DHT22;34745;52.276;10.528;2024-02-26T02:56:01;3.20;40.70
48936;DHT22;34745;52.276;10.528;2024-02-26T02:58:27;3.20;40.50
48936;DHT22;34745;52.276;10.528;2024-02-26T03:00:55;3.20;41.80
48936;DHT22;34745;52.276;10.528;2024-02-26T03:03:22;3.20;43.30
48936;DHT22;34745;52.276;10.528;2024-02-26T03:05:51;3.20;38.20
48936;DHT22;34745;52.276;10.528;2024-02-26T03:08:18;3.20;33.80
48936;DHT22;34745;52.276;10.528;2024-02-26T03:10:45;3.10;33.30
48936;DHT22;34745;52.276;10.528;2024-02-26T03:13:14;3.10;33.00
48936;DHT22;34745;52.276;10.528;2024-02-26T03:15:41;3.00;33.00
48936;DHT22;34745;52.276;10.528;2024-02-26T03:18:09;3.10;31.80
48936;DHT22;34745;52.276;10.528;2024-02-26T03:20:36;3.00;29.10
48936;DHT22;34745;52.276;10.528;2024-02-26T03:23:04;3.00;30.10
48936;DHT22;34745;52.276;10.528;2024-02-26T03:25:31;3.00;35.10
48936;DHT22;34745;52.276;10.528;2024-02-26T03:27:58;3.00;35.50
48936;DHT22;34745;52.276;10.528;2024-02-26T03:30:26;3.10;32.40
48936;DHT22;34745;52.276;10.528;2024-02-26T03:32:54;3.00;29.70
48936;DHT22;34745;52.276;10.528;2024-02-26T03:35:21;3.00;29.80
48936;DHT22;34745;52.276;10.528;2024-02-26T03:37:48;3.10;33.60
48936;DHT22;34745;52.276;10.528;2024-02-26T03:40:17;3.10;31.30
48936;DHT22;34745;52.276;10.528;2024-02-26T03:42:45;3.20;42.50
48936;DHT22;34745;52.276;10.528;2024-02-26T03:45:12;3.20;39.10
48936;DHT22;34745;52.276;10.528;2024-02-26T03:47:41;3.20;43.20
48936;DHT22;34745;52.276;10.528;2024-02-26T03:50:08;3.20;44.90
48936;DHT22;34745;52.276;10.528;2024-02-26T03:52:35;3.20;41.90
48936;DHT22;34745;52.276;10.528;2024-02-26T03:55:02;3.20;38.40
48936;DHT22;34745;52.276;10.528;2024-02-26T03:57:28;3.10;39.60
48936;DHT22;34745;52.276;10.528;2024-02-26T03:59:56;3.10;42.80
48936;DHT22;34745;52.276;10.528;2024-02-26T04:02:23;3.00;45.40
48936;DHT22;34745;52.276;10.528;2024-02-26T04:04:51;3.00;48.20
48936;DHT22;34745;52.276;10.528;2024-02-26T04:07:18;3.00;49.50
48936;DHT22;34745;52.276;10.528;2024-02-26T04:09:45;3.00;50.60
48936;DHT22;34745;52.276;10.528;2024-02-26T04:12:12;3.00;49.40
48936;DHT22;34745;52.276;10.528;2024-02-26T04:14:39;3.10;56.70
48936;DHT22;34745;52.276;10.528;2024-02-26T04:17:06;3.10;62.60
48936;DHT22;34745;52.276;10.528;2024-02-26T04:19:33;3.10;67.00
48936;DHT22;34745;52.276;10.528;2024-02-26T04:22:02;3.10;58.60
48936;DHT22;34745;52.276;10.528;2024-02-26T04:24:29;3.20;54.60
48936;DHT22;34745;52.276;10.528;2024-02-26T04:26:56;3.10;49.40
48936;DHT22;34745;52.276;10.528;2024-02-26T04:29:23;3.10;45.70
48936;DHT22;34745;52.276;10.528;2024-02-26T04:31:50;3.10;45.70
48936;DHT22;34745;52.276;10.528;2024-02-26T04:34:17;3.10;43.20
48936;DHT22;34745;52.276;10.528;2024-02-26T04:36:44;3.00;41.00
48936;DHT22;34745;52.276;10.528;2024-02-26T04:39:13;3.00;39.10
48936;DHT22;34745;52.276;10.528;2024-02-26T04:41:40;3.00;38.00
48936;DHT22;34745;52.276;10.528;2024-02-26T04:44:07;3.00;45.10
48936;DHT22;34745;52.276;10.528;2024-02-26T04:46:34;2.90;45.10
48936;DHT22;34745;52.276;10.528;2024-02-26T04:49:01;2.90;52.80
48936;DHT22;34745;52.276;10.528;2024-02-26T04:51:28;2.90;55.90
48936;DHT22;34745;52.276;10.528;2024-02-26T04:53:55;2.90;55.70
48936;DHT22;34745;52.276;10.528;2024-02-26T04:56:25;3.00;57.10
48936;DHT22;34745;52.276;10.528;2024-02-26T04:58:52;2.90;49.80
48936;DHT22;34745;52.276;10.528;2024-02-26T05:01:19;2.90;48.20
48936;DHT22;34745;52.276;10.528;2024-02-26T05:03:46;2.90;48.00
48936;DHT22;34745;52.276;10.528;2024-02-26T05:06:13;2.90;52.10
48936;DHT22;34745;52.276;10.528;2024-02-26T05:08:41;2.90;55.70
48936;DHT22;34745;52.276;10.528;2024-02-26T05:11:08;2.90;53.00
48936;DHT22;34745;52.276;10.528;2024-02-26T05:13:37;3.10;57.20
48936;DHT22;34745;52.276;10.528;2024-02-26T05:16:04;3.00;59.30
48936;DHT22;34745;52.276;10.528;2024-02-26T05:18:31;3.00;58.70
48936;DHT22;34745;52.276;10.528;2024-02-26T05:20:58;3.00;58.60
48936;DHT22;34745;52.276;10.528;2024-02-26T05:23:26;3.10;57.10
48936;DHT22;34745;52.276;10.528;2024-02-26T05:25:53;3.10;50.80
48936;DHT22;34745;52.276;10.528;2024-02-26T05:28:20;3.20;43.50
48936;DHT22;34745;52.276;10.528;2024-02-26T05:30:49;3.10;45.10
48936;DHT22;34745;52.276;10.528;2024-02-26T05:33:15;3.20;46.50
48936;DHT22;34745;52.276;10.528;2024-02-26T05:35:44;3.20;45.50
48936;DHT22;34745;52.276;10.528;2024-02-26T05:38:11;3.20;45.60
48936;DHT22;34745;52.276;10.528;2024-02-26T05:40:39;3.20;45.20
48936;DHT22;34745;52.276;10.528;2024-02-26T05:43:06;3.20;44.60
48936;DHT22;34745;52.276;10.528;2024-02-26T05:45:33;3.20;40.70
48936;DHT22;34745;52.276;10.528;2024-02-26T05:48:01;3.50;40.60
48936;DHT22;34745;52.276;10.528;2024-02-26T05:50:30;3.20;38.80
48936;DHT22;34745;52.276;10.528;2024-02-26T05:52:57;3.20;37.20
48936;DHT22;34745;52.276;10.528;2024-02-26T05:55:24;3.20;35.40
48936;DHT22;34745;52.276;10.528;2024-02-26T05:57:51;3.30;38.10
48936;DHT22;34745;52.276;10.528;2024-02-26T06:00:19;3.30;45.10
48936;DHT22;34745;52.276;10.528;2024-02-26T06:02:46;3.30;42.10
48936;DHT22;34745;52.276;10.528;2024-02-26T06:05:14;3.30;36.80
48936;DHT22;34745;52.276;10.528;2024-02-26T06:07:41;3.40;31.90
48936;DHT22;34745;52.276;10.528;2024-02-26T06:10:10;3.30;30.00
48936;DHT22;34745;52.276;10.528;2024-02-26T06:12:37;3.30;32.20
48936;DHT22;34745;52.276;10.528;2024-02-26T06:15:04;3.30;26.50
48936;DHT22;34745;52.276;10.528;2024-02-26T06:17:31;3.30;31.10
48936;DHT22;34745;52.276;10.528;2024-02-26T06:19:58;3.30;31.60
48936;DHT22;34745;52.276;10.528;2024-02-26T06:22:29;3.40;35.10
48936;DHT22;34745;52.276;10.528;2024-02-26T06:24:56;3.40;33.60
48936;DHT22;34745;52.276;10.528;2024-02-26T06:27:23;3.50;28.10
48936;DHT22;34745;52.276;10.528;2024-02-26T06:29:51;3.50;28.80
48936;DHT22;34745;52.276;10.528;2024-02-26T06:32:21;3.50;23.30
48936;DHT22;34745;52.276;10.528;2024-02-26T06:34:50;3.50;23.20
48936;DHT22;34745;52.276;10.528;2024-02-26T06:37:17;3.40;24.30
48936;DHT22;34745;52.276;10.528;2024-02-26T06:39:45;3.50;24.30
48936;DHT22;34745;52.276;10.528;2024-02-26T06:42:12;3.50;23.80
48936;DHT22;34745;52.276;10.528;2024-02-26T06:44:39;3.60;16.50
48936;DHT22;34745;52.276;10.528;2024-02-26T06:47:07;3.60;18.70
48936;DHT22;34745;52.276;10.528;2024-02-26T06:49:34;3.60;18.70
48936;DHT22;34745;52.276;10.528;2024-02-26T06:52:01;3.60;19.80
48936;DHT22;34745;52.276;10.528;2024-02-26T06:54:27;3.60;23.20
48936;DHT22;34745;52.276;10.528;2024-02-26T06:56:56;3.70;28.00
48936;DHT22;34745;52.276;10.528;2024-02-26T06:59:23;3.70;19.80
48936;DHT22;34745;52.276;10.528;2024-02-26T07:01:50;3.70;18.20
48936;DHT22;34745;52.276;10.528;2024-02-26T07:04:17;3.70;15.80
48936;DHT22;34745;52.276;10.528;2024-02-26T07:06:44;3.70;16.80
48936;DHT22;34745;52.276;10.528;2024-02-26T07:09:13;3.70;15.20
48936;DHT22;34745;52.276;10.528;2024-02-26T07:11:41;3.70;12.20
48936;DHT22;34745;52.276;10.528;2024-02-26T07:14:12;3.80;15.90
48936;DHT22;34745;52.276;10.528;2024-02-26T07:16:39;3.80;10.10
48936;DHT22;34745;52.276;10.528;2024-02-26T07:19:06;3.90;8.60
48936;DHT22;34745;52.276;10.528;2024-02-26T07:25:33;3.90;10.20
48936;DHT22;34745;52.276;10.528;2024-02-26T07:28:00;4.00;11.00
48936;DHT22;34745;52.276;10.528;2024-02-26T07:30:28;4.10;11.40
48936;DHT22;34745;52.276;10.528;2024-02-26T07:32:55;4.10;4.10
48936;DHT22;34745;52.276;10.528;2024-02-26T07:35:23;4.30;1.00
48936;DHT22;34745;52.276;10.528;2024-02-26T07:37:50;4.10;1.00
48936;DHT22;34745;52.276;10.528;2024-02-26T07:40:17;4.30;1.00
48936;DHT22;34745;52.276;10.528;2024-02-26T07:42:44;4.20;2.30
48936;DHT22;34745;52.276;10.528;2024-02-26T07:45:11;4.30;3.70
48936;DHT22;34745;52.276;10.528;2024-02-26T07:47:40;4.30;2.70
48936;DHT22;34745;52.276;10.528;2024-02-26T07:50:08;4.50;1.00
48936;DHT22;34745;52.276;10.528;2024-02-26T07:52:36;4.40;1.00
48936;DHT22;34745;52.276;10.528;2024-02-26T07:55:03;4.50;1.30
48936;DHT22;34745;52.276;10.528;2024-02-26T07:57:33;4.50;1.00
48936;DHT22;34745;52.276;10.528;2024-02-26T08:00:00;4.60;1.00
48936;DHT22;34745;52.276;10.528;2024-02-26T08:02:28;4.60;1.00
48936;DHT22;34745;52.276;10.528;2024-02-26T08:04:56;4.60;1.00
48936;DHT22;34745;52.276;10.528;2024-02-26T08:07:23;4.70;1.00
48936;DHT22;34745;52.276;10.528;2024-02-26T08:09:50;4.70;1.00
48936;DHT22;34745;52.276;10.528;2024-02-26T08:12:17;4.70;1.00
48936;DHT22;34745;52.276;10.528;2024-02-26T08:14:44;4.70;1.00
48936;DHT22;34745;52.276;10.528;2024-02-26T08:17:11;4.80;1.00
48936;DHT22;34745;52.276;10.528;2024-02-26T08:19:38;4.90;1.00
48936;DHT22;34745;52.276;10.528;2024-02-26T08:22:07;4.90;1.00
48936;DHT22;34745;52.276;10.528;2024-02-26T08:24:34;5.00;1.00
48936;DHT22;34745;52.276;10.528;2024-02-26T08:27:01;5.00;1.00
48936;DHT22;34745;52.276;10.528;2024-02-26T08:29:28;5.00;1.00
48936;DHT22;34745;52.276;10.528;2024-02-26T08:31:55;5.10;1.00
48936;DHT22;34745;52.276;10.528;2024-02-26T08:34:22;5.10;1.00
48936;DHT22;34745;52.276;10.528;2024-02-26T08:36:49;5.10;1.00
48936;DHT22;34745;52.276;10.528;2024-02-26T08:39:18;5.20;1.00
48936;DHT22;34745;52.276;10.528;2024-02-26T08:41:45;5.30;1.00
48936;DHT22;34745;52.276;10.528;2024-02-26T08:44:12;5.30;1.00
48936;DHT22;34745;52.276;10.528;2024-02-26T08:46:39;5.40;1.00
48936;DHT22;34745;52.276;10.528;2024-02-26T08:49:07;5.40;1.00
48936;DHT22;34745;52.276;10.528;2024-02-26T08:51:34;5.50;1.00
48936;DHT22;34745;52.276;10.528;2024-02-26T08:54:01;5.50;1.00
48936;DHT22;34745;52.276;10.528;2024-02-26T08:56:30;5.50;1.00
48936;DHT22;34745;52.276;10.528;2024-02-26T08:58:57;5.60;1.00
48936;DHT22;34745;52.276;10.528;2024-02-26T09:01:25;5.60;1.00
48936;DHT22;34745;52.276;10.528;2024-02-26T09:03:53;5.60;1.00
48936;DHT22;34745;52.276;10.528;2024-02-26T09:06:20;5.70;1.00
48936;DHT22;34745;52.276;10.528;2024-02-26T09:08:47;5.70;1.00
48936;DHT22;34745;52.276;10.528;2024-02-26T09:11:14;5.80;1.00
48936;DHT22;34745;52.276;10.528;2024-02-26T09:13:43;5.70;1.00
48936;DHT22;34745;52.276;10.528;2024-02-26T09:16:11;5.80;1.00
48936;DHT22;34745;52.276;10.528;2024-02-26T09:18:38;5.80;1.00
48936;DHT22;34745;52.276;10.528;2024-02-26T09:21:08;5.90;1.00
48936;DHT22;34745;52.276;10.528;2024-02-26T09:23:35;5.90;1.00
48936;DHT22;34745;52.276;10.528;2024-02-26T09:26:05;6.00;1.00
48936;DHT22;34745;52.276;10.528;2024-02-26T09:28:32;5.90;1.00
48936;DHT22;34745;52.276;10.528;2024-02-26T09:31:05;6.00;1.00
48936;DHT22;34745;52.276;10.528;2024-02-26T09:33:33;6.00;1.00
48936;DHT22;34745;52.276;10.528;2024-02-26T09:36:00;6.00;1.00
48936;DHT22;34745;52.276;10.528;2024-02-26T09:38:27;6.00;1.00
48936;DHT22;34745;52.276;10.528;2024-02-26T09:40:54;6.10;1.00
48936;DHT22;34745;52.276;10.528;2024-02-26T09:43:22;6.00;1.00
48936;DHT22;34745;52.276;10.528;2024-02-26T09:45:54;6.00;1.00
48936;DHT22;34745;52.276;10.528;2024-02-26T09:48:23;6.00;1.00
48936;DHT22;34745;52.276;10.528;2024-02-26T09:50:51;6.10;1.00
48936;DHT22;34745;52.276;10.528;2024-02-26T09:53:22;6.20;1.00
48936;DHT22;34745;52.276;10.528;2024-02-26T09:55:49;6.20;1.00
48936;DHT22;34745;52.276;10.528;2024-02-26T09:58:17;6.30;1.00
48936;DHT22;34745;52.276;10.528;2024-02-26T10:00:50;6.30;1.00
48936;DHT22;34745;52.276;10.528;2024-02-26T10:03:23;6.30;1.00
48936;DHT22;34745;52.276;10.528;2024-02-26T10:05:52;6.40;1.00
48936;DHT22;34745;52.276;10.528;2024-02-26T10:08:23;6.40;1.00
48936;DHT22;34745;52.276;10.528;2024-02-26T10:10:51;6.40;1.00
48936;DHT22;34745;52.276;10.528;2024-02-26T10:13:18;6.40;1.00
48936;DHT22;34745;52.276;10.528;2024-02-26T10:15:47;6.40;1.00
48936;DHT22;34745;52.276;10.528;2024-02-26T10:18:14;6.40;1.00
48936;DHT22;34745;52.276;10.528;2024-02-26T10:20:42;6.40;1.00
48936;DHT22;34745;52.276;10.528;2024-02-26T10:23:25;6.50;1.00
48936;DHT22;34745;52.276;10.528;2024-02-26T10:25:53;6.50;1.00
48936;DHT22;34745;52.276;10.528;2024-02-26T10:28:21;6.50;1.00
48936;DHT22;34745;52.276;10.528;2024-02-26T10:30:48;6.60;1.00
48936;DHT22;34745;52.276;10.528;2024-02-26T10:33:17;6.60;1.00
48936;DHT22;34745;52.276;10.528;2024-02-26T10:35:47;6.60;1.00
48936;DHT22;34745;52.276;10.528;2024-02-26T10:38:14;6.50;1.00
48936;DHT22;34745;52.276;10.528;2024-02-26T10:40:49;6.60;1.00
48936;DHT22;34745;52.276;10.528;2024-02-26T10:43:16;6.60;1.00
48936;DHT22;34745;52.276;10.528;2024-02-26T10:45:43;6.60;1.00
48936;DHT22;34745;52.276;10.528;2024-02-26T10:48:12;6.60;1.00
48936;DHT22;34745;52.276;10.528;2024-02-26T10:50:40;6.60;1.00
48936;DHT22;34745;52.276;10.528;2024-02-26T10:53:13;6.50;1.00
48936;DHT22;34745;52.276;10.528;2024-02-26T10:55:48;6.50;1.00
48936;DHT22;34745;52.276;10.528;2024-02-26T10:58:16;6.60;1.00
48936;DHT22;34745;52.276;10.528;2024-02-26T11:00:43;6.60;1.00
48936;DHT22;34745;52.276;10.528;2024-02-26T11:03:12;6.70;1.00
48936;DHT22;34745;52.276;10.528;2024-02-26T11:05:41;6.80;1.00
48936;DHT22;34745;52.276;10.528;2024-02-26T11:08:11;6.80;1.00
48936;DHT22;34745;52.276;10.528;2024-02-26T11:10:38;6.80;1.00
48936;DHT22;34745;52.276;10.528;2024-02-26T11:13:10;6.80;1.00
48936;DHT22;34745;52.276;10.528;2024-02-26T11:15:39;6.90;1.00
48936;DHT22;34745;52.276;10.528;2024-02-26T11:18:07;7.00;1.00
48936;DHT22;34745;52.276;10.528;2024-02-26T11:20:38;7.00;1.00
48936;DHT22;34745;52.276;10.528;2024-02-26T11:23:07;7.00;1.00
48936;DHT22;34745;52.276;10.528;2024-02-26T11:25:36;7.00;1.00
48936;DHT22;34745;52.276;10.528;2024-02-26T11:28:09;7.00;1.00
48936;DHT22;34745;52.276;10.528;2024-02-26T11:30:39;7.00;1.00
48936;DHT22;34745;52.276;10.528;2024-02-26T11:33:08;7.00;1.00
48936;DHT22;34745;52.276;10.528;2024-02-26T11:35:37;7.00;1.00
48936;DHT22;34745;52.276;10.528;2024-02-26T11:38:04;7.00;1.00
48936;DHT22;34745;52.276;10.528;2024-02-26T11:40:37;7.00;1.00
48936;DHT22;34745;52.276;10.528;2024-02-26T11:43:07;7.10;1.00
48936;DHT22;34745;52.276;10.528;2024-02-26T11:45:50;7.20;1.00
48936;DHT22;34745;52.276;10.528;2024-02-26T11:48:23;7.20;1.00
48936;DHT22;34745;52.276;10.528;2024-02-26T11:50:52;7.20;1.00
48936;DHT22;34745;52.276;10.528;2024-02-26T11:53:21;7.20;1.00
48936;DHT22;34745;52.276;10.528;2024-02-26T11:55:48;7.30;1.00
48936;DHT22;34745;52.276;10.528;2024-02-26T11:58:39;7.30;1.00
48936;DHT22;34745;52.276;10.528;2024-02-26T12:01:10;7.30;1.00
48936;DHT22;34745;52.276;10.528;2024-02-26T12:03:58;7.30;1.00
48936;DHT22;34745;52.276;10.528;2024-02-26T12:06:25;7.40;1.00
48936;DHT22;34745;52.276;10.528;2024-02-26T12:08:52;7.30;1.00
48936;DHT22;34745;52.276;10.528;2024-02-26T12:11:20;7.40;1.00
48936;DHT22;34745;52.276;10.528;2024-02-26T12:13:48;7.40;1.00
48936;DHT22;34745;52.276;10.528;2024-02-26T12:16:36;7.50;1.00
48936;DHT22;34745;52.276;10.528;2024-02-26T12:19:08;7.60;1.00
48936;DHT22;34745;52.276;10.528;2024-02-26T12:21:37;7.60;1.00
48936;DHT22;34745;52.276;10.528;2024-02-26T12:24:10;7.60;1.00
48936;DHT22;34745;52.276;10.528;2024-02-26T12:26:37;7.60;1.00
48936;DHT22;34745;52.276;10.528;2024-02-26T12:29:06;7.60;1.00
48936;DHT22;34745;52.276;10.528;2024-02-26T12:31:33;7.60;1.00
48936;DHT22;34745;52.276;10.528;2024-02-26T12:34:00;7.60;1.00
48936;DHT22;34745;52.276;10.528;2024-02-26T12:36:28;7.60;1.00
48936;DHT22;34745;52.276;10.528;2024-02-26T12:38:54;7.60;1.00
48936;DHT22;34745;52.276;10.528;2024-02-26T12:41:22;7.60;1.00
48936;DHT22;34745;52.276;10.528;2024-02-26T12:43:49;7.70;1.00
48936;DHT22;34745;52.276;10.528;2024-02-26T12:46:18;7.70;1.00
48936;DHT22;34745;52.276;10.528;2024-02-26T12:48:46;7.70;1.00
48936;DHT22;34745;52.276;10.528;2024-02-26T12:51:15;7.70;1.00
48936;DHT22;34745;52.276;10.528;2024-02-26T12:53:43;7.70;1.00
48936;DHT22;34745;52.276;10.528;2024-02-26T12:56:11;7.70;1.00
48936;DHT22;34745;52.276;10.528;2024-02-26T12:58:42;7.70;1.00
48936;DHT22;34745;52.276;10.528;2024-02-26T13:01:14;7.70;1.00
48936;DHT22;34745;52.276;10.528;2024-02-26T13:03:43;7.70;1.00
48936;DHT22;34745;52.276;10.528;2024-02-26T13:06:11;7.80;1.00
48936;DHT22;34745;52.276;10.528;2024-02-26T13:08:39;7.80;1.00
48936;DHT22;34745;52.276;10.528;2024-02-26T13:11:07;7.80;1.00
48936;DHT22;34745;52.276;10.528;2024-02-26T13:13:35;7.90;1.00
48936;DHT22;34745;52.276;10.528;2024-02-26T13:16:03;7.90;1.00
48936;DHT22;34745;52.276;10.528;2024-02-26T13:18:30;7.90;1.00
48936;DHT22;34745;52.276;10.528;2024-02-26T13:21:09;8.00;1.00
48936;DHT22;34745;52.276;10.528;2024-02-26T13:23:37;8.00;1.00
48936;DHT22;34745;52.276;10.528;2024-02-26T13:26:04;8.00;1.00
48936;DHT22;34745;52.276;10.528;2024-02-26T13:28:31;8.10;1.00
48936;DHT22;34745;52.276;10.528;2024-02-26T13:31:00;8.10;1.00
48936;DHT22;34745;52.276;10.528;2024-02-26T13:33:28;8.20;1.00
48936;DHT22;34745;52.276;10.528;2024-02-26T13:35:57;8.30;1.00
48936;DHT22;34745;52.276;10.528;2024-02-26T13:38:26;8.30;1.00
48936;DHT22;34745;52.276;10.528;2024-02-26T13:40:54;8.40;1.00
48936;DHT22;34745;52.276;10.528;2024-02-26T13:43:21;8.50;1.00
48936;DHT22;34745;52.276;10.528;2024-02-26T13:45:48;8.50;1.00
48936;DHT22;34745;52.276;10.528;2024-02-26T13:48:15;8.50;1.00
48936;DHT22;34745;52.276;10.528;2024-02-26T13:50:44;8.40;1.00
48936;DHT22;34745;52.276;10.528;2024-02-26T13:53:13;8.40;1.00
48936;DHT22;34745;52.276;10.528;2024-02-26T13:55:41;8.60;1.00
48936;DHT22;34745;52.276;10.528;2024-02-26T13:58:12;8.40;1.00
48936;DHT22;34745;52.276;10.528;2024-02-26T14:00:40;8.40;1.00
48936;DHT22;34745;52.276;10.528;2024-02-26T14:03:09;8.40;1.00
48936;DHT22;34745;52.276;10.528;2024-02-26T14:05:37;8.40;1.00
48936;DHT22;34745;52.276;10.528;2024-02-26T14:08:04;8.40;1.00
48936;DHT22;34745;52.276;10.528;2024-02-26T14:10:32;8.40;1.00
48936;DHT22;34745;52.276;10.528;2024-02-26T14:13:01;8.40;1.00
48936;DHT22;34745;52.276;10.528;2024-02-26T14:15:28;8.40;1.00
48936;DHT22;34745;52.276;10.528;2024-02-26T14:17:55;8.30;1.00
48936;DHT22;34745;52.276;10.528;2024-02-26T14:20:24;8.40;1.00
48936;DHT22;34745;52.276;10.528;2024-02-26T14:22:52;8.30;1.00
48936;DHT22;34745;52.276;10.528;2024-02-26T14:25:20;8.30;1.00
48936;DHT22;34745;52.276;10.528;2024-02-26T14:27:47;8.30;1.00
48936;DHT22;34745;52.276;10.528;2024-02-26T14:30:16;8.20;1.00
48936;DHT22;34745;52.276;10.528;2024-02-26T14:32:43;8.30;1.00
48936;DHT22;34745;52.276;10.528;2024-02-26T14:35:11;8.30;1.00
48936;DHT22;34745;52.276;10.528;2024-02-26T14:37:43;8.20;1.00
48936;DHT22;34745;52.276;10.528;2024-02-26T14:40:15;8.20;1.00
48936;DHT22;34745;52.276;10.528;2024-02-26T14:42:42;8.20;1.00
48936;DHT22;34745;52.276;10.528;2024-02-26T14:45:09;8.20;1.00
48936;DHT22;34745;52.276;10.528;2024-02-26T14:47:40;8.20;1.00
48936;DHT22;34745;52.276;10.528;2024-02-26T14:50:07;8.20;1.00
48936;DHT22;34745;52.276;10.528;2024-02-26T14:52:35;8.20;1.00
48936;DHT22;34745;52.276;10.528;2024-02-26T14:55:02;8.30;1.00
48936;DHT22;34745;52.276;10.528;2024-02-26T14:57:29;8.20;1.00
48936;DHT22;34745;52.276;10.528;2024-02-26T14:59:56;8.10;1.00
48936;DHT22;34745;52.276;10.528;2024-02-26T15:02:23;8.10;1.00
48936;DHT22;34745;52.276;10.528;2024-02-26T15:04:51;8.20;1.00
48936;DHT22;34745;52.276;10.528;2024-02-26T15:07:19;8.20;1.00
48936;DHT22;34745;52.276;10.528;2024-02-26T15:09:47;8.10;1.00
48936;DHT22;34745;52.276;10.528;2024-02-26T15:12:14;8.10;1.00
48936;DHT22;34745;52.276;10.528;2024-02-26T15:14:44;8.10;1.00
48936;DHT22;34745;52.276;10.528;2024-02-26T15:17:11;8.00;1.00
48936;DHT22;34745;52.276;10.528;2024-02-26T15:19:40;8.00;1.00
48936;DHT22;34745;52.276;10.528;2024-02-26T15:22:08;8.00;1.00
48936;DHT22;34745;52.276;10.528;2024-02-26T15:24:35;8.10;1.00
48936;DHT22;34745;52.276;10.528;2024-02-26T15:27:04;8.10;1.00
48936;DHT22;34745;52.276;10.528;2024-02-26T15:29:31;8.10;1.00
48936;DHT22;34745;52.276;10.528;2024-02-26T15:31:58;8.10;1.00
48936;DHT22;34745;52.276;10.528;2024-02-26T15:34:24;8.00;1.00
48936;DHT22;34745;52.276;10.528;2024-02-26T15:36:52;8.10;1.00
48936;DHT22;34745;52.276;10.528;2024-02-26T15:39:20;8.10;1.00
48936;DHT22;34745;52.276;10.528;2024-02-26T15:41:48;8.00;1.00
48936;DHT22;34745;52.276;10.528;2024-02-26T15:44:15;8.00;1.00
48936;DHT22;34745;52.276;10.528;2024-02-26T15:46:42;8.10;1.00
48936;DHT22;34745;52.276;10.528;2024-02-26T15:49:09;8.00;1.00